Time;durP1;ratioP1;P1;durP2;ratioP2;P2;SDS_P1;SDS_P2;PMS_P1;PMS_P2;Temp;Humidity;BMP_temperature;BMP_pressure;BME280_temperature;BME280_humidity;BME280_pressure;Samples;Min_cycle;Max_cycle;Signal;HPM_P1;HPM_P2
2023/04/19 00:01:55;;;;;;;4.50;2.40;;;;;;;14.87;80.54;98528.59;6159885;23;20179;-93
2023/04/19 00:04:20;;;;;;;4.27;2.50;;;;;;;14.84;80.78;98532.31;6186383;23;20153;-92
2023/04/19 00:06:46;;;;;;;5.60;3.00;;;;;;;14.70;81.26;98529.94;6160320;23;20487;-92
2023/04/19 00:09:13;;;;;;;5.53;2.57;;;;;;;14.65;81.41;98521.50;6186273;23;20586;-91
2023/04/19 00:11:39;;;;;;;4.97;2.87;;;;;;;14.78;81.50;98522.22;6159649;23;20212;-91
2023/04/19 00:14:06;;;;;;;6.00;3.10;;;;;;;14.90;80.35;98516.00;6159822;23;20154;-91
2023/04/19 00:16:32;;;;;;;7.30;3.23;;;;;;;14.85;80.32;98515.53;6185661;23;20151;-89
2023/04/19 00:18:58;;;;;;;8.23;2.80;;;;;;;14.57;81.57;98516.84;6159732;23;20574;-90
2023/04/19 00:21:25;;;;;;;8.30;2.80;;;;;;;14.59;82.28;98506.19;6185589;23;20143;-90
2023/04/19 00:23:50;;;;;;;5.93;3.07;;;;;;;14.52;82.51;98512.88;6185671;23;20157;-91
2023/04/19 00:26:16;;;;;;;3.93;2.53;;;;;;;14.43;83.62;98505.72;6185764;23;20235;-91
2023/04/19 00:28:43;;;;;;;5.50;2.17;;;;;;;14.42;83.18;98504.88;6186018;23;20151;-92
2023/04/19 00:31:10;;;;;;;4.33;1.63;;;;;;;14.43;83.54;98501.28;6185534;23;20251;-90
2023/04/19 00:33:35;;;;;;;3.20;1.67;;;;;;;14.48;82.71;98493.00;6159590;23;20521;-91
2023/04/19 00:36:01;;;;;;;3.43;1.73;;;;;;;14.41;83.29;98494.47;6185472;23;20168;-91
2023/04/19 00:38:27;;;;;;;3.97;2.03;;;;;;;14.47;82.86;98497.44;6159450;23;20473;-91
2023/04/19 00:40:54;;;;;;;2.83;1.53;;;;;;;14.53;82.39;98496.13;6160293;23;20150;-90
2023/04/19 00:43:20;;;;;;;3.57;1.63;;;;;;;14.32;82.82;98492.53;6186100;23;20150;-92
2023/04/19 00:45:46;;;;;;;3.60;2.10;;;;;;;14.45;82.71;98490.59;6185432;23;20517;-91
2023/04/19 00:48:14;;;;;;;4.33;2.07;;;;;;;14.39;82.55;98485.81;6159358;23;20193;-91
2023/04/19 00:50:43;;;;;;;4.33;2.00;;;;;;;14.39;82.73;98491.91;6185640;23;20171;-90
2023/04/19 00:53:10;;;;;;;3.70;1.87;;;;;;;14.28;82.34;98494.53;6185239;23;20644;-90
2023/04/19 00:55:41;;;;;;;4.23;2.07;;;;;;;14.18;82.81;98502.31;6185737;23;20266;-90
2023/04/19 00:58:08;;;;;;;4.70;2.30;;;;;;;14.14;83.17;98495.59;6186038;23;20296;-90
2023/04/19 01:00:36;;;;;;;5.17;2.57;;;;;;;14.08;83.47;98490.81;6185301;23;20225;-89
2023/04/19 01:03:02;;;;;;;4.67;2.03;;;;;;;13.91;83.89;98495.69;6185861;23;20152;-89
2023/04/19 01:05:28;;;;;;;5.40;2.63;;;;;;;14.10;83.65;98483.59;6185549;23;20155;-90
2023/04/19 01:07:55;;;;;;;4.47;2.23;;;;;;;14.16;82.54;98485.78;6159226;23;20161;-89
2023/04/19 01:10:21;;;;;;;4.77;1.77;;;;;;;14.04;82.34;98481.47;6185461;23;20175;-90
2023/04/19 01:12:47;;;;;;;5.20;1.97;;;;;;;13.94;82.61;98477.84;6185628;23;20151;-90
2023/04/19 01:15:12;;;;;;;5.40;2.20;;;;;;;13.97;83.03;98482.03;6159216;23;20155;-90
2023/04/19 01:17:39;;;;;;;3.70;2.27;;;;;;;14.13;82.28;98479.91;6185222;23;20235;-90
2023/04/19 01:20:06;;;;;;;4.90;2.63;;;;;;;14.15;81.64;98477.97;6185199;23;20622;-89
2023/04/19 01:22:37;;;;;;;4.50;2.33;;;;;;;14.25;81.65;98471.06;6185142;23;20148;-90
2023/04/19 01:25:05;;;;;;;6.30;2.43;;;;;;;14.08;82.30;98475.00;6186504;23;20189;-89
2023/04/19 01:27:32;;;;;;;5.40;2.40;;;;;;;13.94;83.27;98471.75;6187456;23;20528;-90
2023/04/19 01:29:57;;;;;;;4.57;2.30;;;;;;;13.83;84.24;98467.31;6186987;23;20288;-90
2023/04/19 01:32:25;;;;;;;5.70;2.83;;;;;;;13.75;84.89;98467.03;6186989;23;20157;-89
2023/04/19 01:34:51;;;;;;;5.93;2.63;;;;;;;13.77;85.26;98470.41;6183134;23;20202;-89
2023/04/19 01:37:17;;;;;;;7.80;2.97;;;;;;;13.83;85.26;98463.81;6186182;23;20153;-89
2023/04/19 01:39:44;;;;;;;5.50;2.77;;;;;;;13.89;84.98;98460.69;6186745;23;20155;-89
2023/04/19 01:42:10;;;;;;;6.47;2.97;;;;;;;13.78;85.13;98465.97;6186898;23;20157;-89
2023/04/19 01:44:35;;;;;;;6.07;3.50;;;;;;;13.76;85.78;98462.59;6186952;23;20222;-89
2023/04/19 01:47:04;;;;;;;6.03;2.83;;;;;;;13.63;86.34;98465.31;6187107;23;20579;-89
2023/04/19 01:49:30;;;;;;;7.33;3.40;;;;;;;13.72;86.27;98456.75;6187016;23;20286;-89
2023/04/19 01:51:56;;;;;;;8.13;3.33;;;;;;;13.93;85.13;98463.00;6186942;23;20182;-87
2023/04/19 01:54:22;;;;;;;8.00;4.10;;;;;;;13.80;85.51;98469.31;6186982;23;20646;-88
2023/04/19 01:56:47;;;;;;;9.07;3.90;;;;;;;13.91;84.44;98461.44;6187319;23;20241;-88
2023/04/19 01:59:12;;;;;;;8.63;4.00;;;;;;;14.03;83.78;98456.06;6186962;23;20213;-88
2023/04/19 02:01:38;;;;;;;9.60;4.37;;;;;;;13.63;86.31;98457.41;6186902;23;20174;-88
2023/04/19 02:04:03;;;;;;;10.30;4.47;;;;;;;13.76;86.46;98463.44;6187322;23;20158;-88
2023/04/19 02:06:30;;;;;;;10.10;5.07;;;;;;;13.98;85.18;98460.84;6186777;23;20586;-88
2023/04/19 02:08:57;;;;;;;11.20;5.03;;;;;;;13.93;85.01;98460.38;6186757;23;20146;-87
2023/04/19 02:11:23;;;;;;;12.60;5.23;;;;;;;13.94;84.87;98454.13;6160826;23;20194;-87
2023/04/19 02:13:48;;;;;;;15.07;7.00;;;;;;;14.13;83.97;98459.66;6187081;23;20147;-87
2023/04/19 02:16:13;;;;;;;11.57;5.73;;;;;;;14.16;83.74;98461.22;6186813;23;20225;-86
2023/04/19 02:18:40;;;;;;;15.67;6.23;;;;;;;14.09;83.44;98465.28;6187197;23;20573;-87
2023/04/19 02:21:07;;;;;;;12.53;6.90;;;;;;;14.04;83.75;98464.81;6187038;23;20575;-86
2023/04/19 02:23:33;;;;;;;13.60;6.43;;;;;;;14.03;83.73;98465.75;6160749;23;20490;-87
2023/04/19 02:26:02;;;;;;;9.83;5.37;;;;;;;14.02;83.91;98459.66;6186775;23;20230;-88
2023/04/19 02:28:29;;;;;;;10.50;4.73;;;;;;;13.95;84.24;98454.97;6186717;23;20158;-88
2023/04/19 02:30:55;;;;;;;8.57;4.37;;;;;;;13.66;85.62;98454.56;6186886;23;20174;-87
2023/04/19 02:33:21;;;;;;;9.20;4.50;;;;;;;13.75;85.87;98451.25;6186951;23;20229;-88
2023/04/19 02:35:47;;;;;;;9.17;4.23;;;;;;;13.73;85.59;98453.13;6186457;23;20151;-87
2023/04/19 02:38:12;;;;;;;8.07;4.17;;;;;;;13.77;85.39;98451.09;6160386;23;20487;-87
2023/04/19 02:40:38;;;;;;;7.73;3.97;;;;;;;13.70;85.78;98448.13;6186528;23;20142;-86
2023/04/19 02:43:05;;;;;;;8.13;3.70;;;;;;;13.73;86.01;98444.41;6186946;23;20456;-87
2023/04/19 02:45:32;;;;;;;7.40;3.50;;;;;;;13.68;86.24;98442.09;6186655;23;20146;-87
2023/04/19 02:47:59;;;;;;;7.50;3.57;;;;;;;13.78;85.41;98445.75;6186594;23;20150;-87
2023/04/19 02:50:26;;;;;;;6.80;3.17;;;;;;;13.78;85.38;98439.63;6160383;23;20176;-87
2023/04/19 02:52:51;;;;;;;6.03;3.47;;;;;;;13.80;84.88;98443.81;6160596;23;20158;-87
2023/04/19 02:55:18;;;;;;;7.03;3.27;;;;;;;13.99;84.47;98451.16;6186527;23;20277;-87
2023/04/19 02:57:45;;;;;;;6.53;3.47;;;;;;;14.06;83.94;98455.84;6186800;23;20229;-87
2023/04/19 03:00:12;;;;;;;7.53;3.03;;;;;;;14.07;83.84;98460.13;6186413;23;20146;-87
2023/04/19 03:02:40;;;;;;;6.13;2.93;;;;;;;13.98;83.15;98454.75;6186421;23;20170;-86
2023/04/19 03:05:07;;;;;;;6.27;3.30;;;;;;;13.98;83.77;98455.59;6186430;23;20236;-86
2023/04/19 03:07:33;;;;;;;7.00;3.27;;;;;;;14.04;83.30;98457.75;6186704;23;20190;-86
2023/04/19 03:10:00;;;;;;;5.10;3.20;;;;;;;14.08;83.31;98455.69;6160309;23;20158;-87
2023/04/19 03:12:25;;;;;;;8.50;3.53;;;;;;;14.01;83.17;98450.09;6186411;23;20540;-87
2023/04/19 03:14:51;;;;;;;6.63;3.67;;;;;;;13.98;83.48;98442.41;6186614;23;20185;-87
2023/04/19 03:17:16;;;;;;;4.80;2.83;;;;;;;13.91;83.92;98443.84;6186350;23;20193;-87
2023/04/19 03:19:42;;;;;;;5.30;2.60;;;;;;;13.71;85.19;98438.41;6186328;23;20146;-87
2023/04/19 03:22:07;;;;;;;7.10;3.43;;;;;;;13.70;85.74;98447.28;6186089;23;20158;-87
2023/04/19 03:24:34;;;;;;;6.00;3.10;;;;;;;13.83;84.67;98443.59;6186241;23;20150;-87
2023/04/19 03:27:02;;;;;;;6.13;3.23;;;;;;;13.77;85.55;98445.84;6160357;23;20226;-87
2023/04/19 03:29:27;;;;;;;6.00;3.33;;;;;;;13.95;84.56;98440.00;6160074;23;20537;-86
2023/04/19 03:31:53;;;;;;;6.13;3.27;;;;;;;14.03;83.54;98442.03;6186486;23;20175;-86
2023/04/19 03:34:18;;;;;;;8.50;4.77;;;;;;;14.11;83.25;98442.28;6186192;23;20160;-87
2023/04/19 03:36:45;;;;;;;31.67;18.97;;;;;;;14.10;82.97;98436.19;6160192;23;20178;-86
2023/04/19 03:39:12;;;;;;;8.13;4.33;;;;;;;14.02;83.42;98438.56;6160292;23;20167;-86
2023/04/19 03:41:39;;;;;;;6.80;4.03;;;;;;;14.08;83.15;98432.81;6186118;23;20147;-87
2023/04/19 03:44:04;;;;;;;9.73;4.53;;;;;;;14.15;82.85;98434.00;6186456;23;20177;-86
2023/04/19 03:46:31;;;;;;;8.57;4.70;;;;;;;14.10;82.93;98438.81;6186091;23;20166;-87
2023/04/19 03:48:57;;;;;;;9.33;4.70;;;;;;;14.20;82.81;98441.59;6185951;23;20147;-86
2023/04/19 03:51:23;;;;;;;10.53;4.30;;;;;;;14.18;82.09;98442.66;6159833;23;20182;-86
2023/04/19 03:53:48;;;;;;;10.30;5.20;;;;;;;14.22;82.45;98446.72;6160882;23;20209;-85
2023/04/19 03:56:15;;;;;;;7.70;3.90;;;;;;;14.19;82.51;98445.16;6160400;23;20259;-86
2023/04/19 03:58:41;;;;;;;11.87;5.43;;;;;;;14.18;82.27;98446.97;6186323;23;20151;-86
2023/04/19 04:01:07;;;;;;;11.07;5.30;;;;;;;14.15;82.52;98454.25;6186088;23;20586;-86
2023/04/19 04:03:33;;;;;;;9.47;4.87;;;;;;;14.09;82.27;98441.56;6184653;23;20212;-87
2023/04/19 04:06:00;;;;;;;9.87;5.27;;;;;;;14.20;82.71;98451.28;6183583;23;20151;-86
2023/04/19 04:08:26;;;;;;;10.57;5.17;;;;;;;14.27;82.36;98448.03;6184638;23;20154;-87
2023/04/19 04:10:53;;;;;;;10.90;5.47;;;;;;;14.15;83.11;98454.25;6185922;23;20186;-88
2023/04/19 04:13:18;;;;;;;10.30;4.70;;;;;;;14.16;82.46;98456.78;6184223;23;20147;-87
2023/04/19 04:15:45;;;;;;;12.03;5.67;;;;;;;14.13;83.04;98456.19;6185759;23;20216;-86
2023/04/19 04:18:11;;;;;;;10.80;5.43;;;;;;;14.14;83.08;98461.34;6185728;23;20242;-87
2023/04/19 04:20:36;;;;;;;23.87;7.53;;;;;;;14.09;83.18;98466.13;6185614;23;20142;-87
2023/04/19 04:23:02;;;;;;;12.80;6.40;;;;;;;14.12;83.30;98465.06;6185656;23;20605;-87
2023/04/19 04:25:28;;;;;;;10.17;5.37;;;;;;;14.14;83.24;98458.72;6185603;23;20481;-86
2023/04/19 04:27:55;;;;;;;13.23;7.07;;;;;;;14.24;82.63;98461.47;6186175;23;20177;-87
2023/04/19 04:30:21;;;;;;;15.13;7.13;;;;;;;14.23;82.87;98466.88;6185446;23;20245;-87
2023/04/19 04:32:46;;;;;;;14.47;7.17;;;;;;;14.20;82.77;98465.31;6185589;23;20524;-87
2023/04/19 04:35:13;;;;;;;13.47;6.57;;;;;;;14.12;83.66;98465.88;6185819;23;20150;-87
2023/04/19 04:37:39;;;;;;;14.80;7.07;;;;;;;14.16;83.72;98464.69;6185438;23;20512;-87
2023/04/19 04:40:07;;;;;;;15.87;7.43;;;;;;;14.29;83.31;98469.84;6185435;23;20146;-86
2023/04/19 04:42:33;;;;;;;14.70;6.97;;;;;;;14.21;83.69;98472.25;6186068;23;20151;-87
2023/04/19 04:45:00;;;;;;;18.47;8.70;;;;;;;14.15;84.25;98467.44;6185285;23;20613;-87
2023/04/19 04:47:31;;;;;;;18.27;7.93;;;;;;;14.15;83.83;98476.19;6185375;23;20146;-87
2023/04/19 04:49:58;;;;;;;16.57;7.13;;;;;;;14.22;83.44;98473.09;6185727;23;20142;-87
2023/04/19 04:52:25;;;;;;;11.13;5.77;;;;;;;14.08;83.89;98475.00;6185638;23;20154;-87
2023/04/19 04:54:51;;;;;;;13.10;6.60;;;;;;;14.14;84.25;98473.69;6185190;23;20201;-86
2023/04/19 04:57:17;;;;;;;13.93;7.00;;;;;;;14.22;83.71;98465.19;6185448;23;20166;-86
2023/04/19 04:59:45;;;;;;;17.70;7.43;;;;;;;14.21;84.16;98464.31;6159076;23;20173;-86
2023/04/19 05:02:11;;;;;;;17.80;9.17;;;;;;;14.26;84.14;98467.44;6185721;23;20142;-87
2023/04/19 05:04:37;;;;;;;12.50;6.63;;;;;;;14.34;83.73;98464.25;6159570;23;20261;-88
2023/04/19 05:07:04;;;;;;;10.33;5.93;;;;;;;14.28;84.21;98462.88;6184786;23;20178;-86
2023/04/19 05:09:30;;;;;;;12.17;5.60;;;;;;;14.22;84.43;98458.13;6184922;23;20150;-87
2023/04/19 05:11:57;;;;;;;11.17;6.10;;;;;;;14.29;84.99;98459.31;6159024;23;20571;-87
2023/04/19 05:14:24;;;;;;;10.53;5.00;;;;;;;14.34;83.43;98465.09;6159197;23;20154;-87
2023/04/19 05:16:51;;;;;;;11.67;5.13;;;;;;;14.44;82.80;98466.03;6158335;23;20163;-87
2023/04/19 05:19:18;;;;;;;9.90;5.00;;;;;;;14.47;82.31;98464.94;6184528;23;20661;-87
2023/04/19 05:21:43;;;;;;;11.40;5.47;;;;;;;14.50;81.51;98467.34;6156469;23;20449;-87
2023/04/19 05:24:09;;;;;;;11.80;5.40;;;;;;;14.66;81.47;98460.75;6157056;23;20223;-87
2023/04/19 05:26:34;;;;;;;12.10;5.90;;;;;;;14.72;81.26;98464.69;6183986;23;20143;-86
2023/04/19 05:29:00;;;;;;;10.50;5.10;;;;;;;14.82;81.21;98473.56;6183423;23;20158;-87
2023/04/19 05:31:25;;;;;;;13.50;5.60;;;;;;;14.73;81.02;98463.72;6184387;23;20255;-86
2023/04/19 05:33:51;;;;;;;11.93;5.63;;;;;;;14.78;81.69;98465.03;6184961;23;20147;-91
2023/04/19 05:36:16;;;;;;;11.80;5.13;;;;;;;14.89;81.17;98466.81;6158962;23;20170;-91
2023/04/19 05:38:53;;;;;;;10.40;5.10;;;;;;;14.90;80.74;98470.28;6185088;23;20152;-92
2023/04/19 05:41:19;;;;;;;10.63;5.47;;;;;;;14.91;80.52;98464.88;6158925;23;20152;-87
2023/04/19 05:43:45;;;;;;;13.17;5.17;;;;;;;15.02;80.52;98467.50;6185011;23;20570;-88
2023/04/19 05:46:10;;;;;;;8.90;4.40;;;;;;;14.91;81.04;98470.16;6184633;23;20207;-87
2023/04/19 05:48:36;;;;;;;9.80;4.67;;;;;;;14.76;80.83;98468.75;6184937;23;20152;-87
2023/04/19 05:51:02;;;;;;;7.10;3.20;;;;;;;14.89;80.21;98472.09;6159000;23;20611;-87
2023/04/19 05:53:28;;;;;;;9.93;3.60;;;;;;;14.77;80.18;98467.81;6184541;23;20151;-87
2023/04/19 05:55:53;;;;;;;7.93;3.60;;;;;;;14.88;80.01;98469.59;6184869;23;20191;-87
2023/04/19 05:58:19;;;;;;;8.33;4.23;;;;;;;14.86;80.51;98471.50;6184588;23;20151;-87
2023/04/19 06:00:45;;;;;;;8.57;3.43;;;;;;;14.81;79.36;98478.94;6184898;23;20292;-88
2023/04/19 06:03:11;;;;;;;9.10;4.13;;;;;;;14.69;79.86;98478.13;6184978;23;20160;-87
2023/04/19 06:05:36;;;;;;;7.13;3.23;;;;;;;14.70;80.16;98478.00;6184878;23;20147;-87
2023/04/19 06:08:05;;;;;;;9.60;4.23;;;;;;;14.75;80.24;98469.72;6158975;23;20528;-87
2023/04/19 06:10:31;;;;;;;8.20;3.70;;;;;;;14.77;79.78;98478.34;6185198;23;20170;-87
2023/04/19 06:12:57;;;;;;;9.70;3.80;;;;;;;14.77;79.86;98473.09;6186279;23;20158;-87
2023/04/19 06:15:24;;;;;;;6.97;3.60;;;;;;;14.80;80.44;98478.13;6186666;23;20147;-87
2023/04/19 06:17:50;;;;;;;8.37;3.33;;;;;;;14.84;80.35;98479.53;6186654;23;20234;-88
2023/04/19 06:20:15;;;;;;;10.87;4.93;;;;;;;14.82;80.36;98478.81;6160661;23;20156;-88
2023/04/19 06:22:44;;;;;;;8.00;4.03;;;;;;;14.92;80.71;98482.41;6186504;23;20151;-87
2023/04/19 06:25:11;;;;;;;15.67;5.10;;;;;;;15.05;80.59;98476.97;6187104;23;20560;-88
2023/04/19 06:27:37;;;;;;;9.13;3.90;;;;;;;15.21;79.83;98472.13;6160363;23;20178;-90
2023/04/19 06:30:03;;;;;;;8.27;3.77;;;;;;;15.14;80.30;98481.50;6186510;23;20147;-89
2023/04/19 06:32:29;;;;;;;8.97;3.90;;;;;;;15.23;80.41;98480.75;6186493;23;20153;-88
2023/04/19 06:34:54;;;;;;;5.63;3.17;;;;;;;15.15;80.34;98483.16;6184243;23;20153;-89
2023/04/19 06:37:20;;;;;;;8.97;4.00;;;;;;;15.26;80.13;98481.34;6184404;23;20149;-88
2023/04/19 06:39:45;;;;;;;6.40;3.03;;;;;;;15.29;79.66;98478.44;6184785;23;20161;-89
2023/04/19 06:42:11;;;;;;;5.47;2.90;;;;;;;15.33;80.32;98485.13;6184793;23;20149;-90
2023/04/19 06:44:36;;;;;;;7.23;3.43;;;;;;;15.27;79.67;98483.03;6184680;23;20153;-89
2023/04/19 06:47:02;;;;;;;5.20;2.70;;;;;;;15.32;79.41;98490.56;6184824;23;20149;-89
2023/04/19 06:49:28;;;;;;;7.63;3.47;;;;;;;15.30;78.97;98488.03;6159882;23;20238;-90
2023/04/19 06:51:53;;;;;;;6.10;2.63;;;;;;;14.99;81.38;98494.13;6186793;23;20179;-90
2023/04/19 06:54:19;;;;;;;6.23;2.83;;;;;;;15.22;81.14;98489.66;6186258;23;20282;-90
2023/04/19 06:56:46;;;;;;;5.80;2.30;;;;;;;15.39;80.61;98497.84;6160618;23;20216;-90
2023/04/19 06:59:19;;;;;;;6.43;2.93;;;;;;;15.59;80.01;98495.41;6186502;23;20150;-90
2023/04/19 07:01:45;;;;;;;6.70;2.00;;;;;;;15.55;78.92;98497.44;6186492;23;20565;-90
2023/04/19 07:04:12;;;;;;;3.23;1.73;;;;;;;15.55;78.11;98501.88;6186290;23;20481;-91
2023/04/19 07:06:38;;;;;;;3.20;1.53;;;;;;;15.56;77.68;98506.22;6186523;23;20182;-90
2023/04/19 07:09:05;;;;;;;2.40;1.40;;;;;;;15.58;76.30;98513.06;6160754;23;20542;-91
2023/04/19 07:11:31;;;;;;;3.40;2.30;;;;;;;15.64;76.51;98506.44;6186289;23;20180;-91
2023/04/19 07:13:57;;;;;;;4.07;2.03;;;;;;;15.62;76.19;98516.25;6186387;23;20149;-92
2023/04/19 07:16:22;;;;;;;3.23;1.27;;;;;;;15.62;76.01;98518.91;6186377;23;20150;-91
2023/04/19 07:18:48;;;;;;;3.30;1.67;;;;;;;15.80;75.60;98512.13;6160255;23;20514;-91
2023/04/19 07:21:14;;;;;;;2.80;1.53;;;;;;;15.87;75.52;98522.03;6160525;23;20492;-92
2023/04/19 07:23:40;;;;;;;3.27;1.53;;;;;;;15.92;74.37;98522.50;6186184;23;20506;-91
2023/04/19 07:26:06;;;;;;;4.27;1.47;;;;;;;15.78;74.49;98524.59;6186041;23;20153;-91
2023/04/19 07:28:32;;;;;;;4.30;1.20;;;;;;;15.89;75.30;98521.91;6186294;23;20147;-91
2023/04/19 07:30:57;;;;;;;3.07;1.27;;;;;;;16.02;75.40;98514.63;6186149;23;20247;-91
2023/04/19 07:33:26;;;;;;;3.13;1.63;;;;;;;15.99;76.45;98522.81;6186651;23;20465;-91
2023/04/19 07:35:52;;;;;;;5.03;2.10;;;;;;;16.09;76.18;98507.81;6160065;23;20182;-90
2023/04/19 07:38:18;;;;;;;2.40;1.30;;;;;;;15.95;75.58;98524.03;6160202;23;20165;-91
2023/04/19 07:40:44;;;;;;;2.80;1.30;;;;;;;16.14;74.00;98529.44;6160137;23;20150;-91
2023/04/19 07:43:09;;;;;;;3.37;1.70;;;;;;;16.21;73.85;98527.13;6160119;23;20150;-91
2023/04/19 07:45:35;;;;;;;7.30;2.07;;;;;;;16.18;73.47;98532.66;6160000;23;20239;-90
2023/04/19 07:48:00;;;;;;;3.20;1.50;;;;;;;16.23;73.59;98535.75;6186094;23;20146;-90
2023/04/19 07:50:26;;;;;;;3.03;1.30;;;;;;;16.23;73.77;98536.59;6185991;23;20660;-91
2023/04/19 07:52:52;;;;;;;3.13;1.37;;;;;;;16.11;72.78;98537.66;6185748;23;20165;-90
2023/04/19 07:55:17;;;;;;;2.67;1.60;;;;;;;16.15;72.60;98544.34;6185735;23;20644;-90
2023/04/19 07:57:47;;;;;;;3.17;1.17;;;;;;;16.20;72.33;98544.78;6186254;23;20464;-90
2023/04/19 08:00:14;;;;;;;3.23;1.43;;;;;;;16.23;72.50;98539.25;6159901;23;20165;-90
2023/04/19 08:02:44;;;;;;;2.93;1.30;;;;;;;16.26;72.96;98538.13;6185782;23;20217;-90
2023/04/19 08:05:11;;;;;;;2.33;1.10;;;;;;;16.25;71.84;98539.94;6185817;23;20233;-91
2023/04/19 08:07:37;;;;;;;3.10;1.47;;;;;;;16.15;72.73;98540.84;6160048;23;20479;-89
2023/04/19 08:10:04;;;;;;;3.67;1.60;;;;;;;16.30;73.14;98537.75;6186125;23;20157;-91
2023/04/19 08:12:29;;;;;;;4.20;1.43;;;;;;;16.37;73.15;98546.84;6185783;23;20627;-91
2023/04/19 08:14:55;;;;;;;3.90;1.40;;;;;;;16.43;72.03;98543.66;6159757;23;20186;-91
2023/04/19 08:17:22;;;;;;;2.33;1.10;;;;;;;16.33;72.18;98553.34;6186031;23;20217;-90
2023/04/19 08:19:48;;;;;;;2.33;1.10;;;;;;;16.43;72.52;98545.50;6186081;23;20627;-90
2023/04/19 08:22:16;;;;;;;5.00;1.37;;;;;;;16.44;72.51;98547.16;6159591;23;20157;-90
2023/04/19 08:24:41;;;;;;;3.63;1.20;;;;;;;16.37;71.47;98549.50;6185645;23;20154;-90
2023/04/19 08:27:08;;;;;;;3.43;1.50;;;;;;;16.25;71.00;98545.22;6159596;23;20164;-90
2023/04/19 08:29:34;;;;;;;2.07;0.90;;;;;;;16.29;71.41;98546.66;6185912;23;20146;-91
2023/04/19 08:32:00;;;;;;;2.67;1.17;;;;;;;16.31;70.65;98544.72;6185493;23;20499;-91
2023/04/19 08:34:26;;;;;;;3.37;1.50;;;;;;;16.43;71.27;98548.94;6184972;23;20205;-91
2023/04/19 08:36:52;;;;;;;2.77;1.20;;;;;;;16.49;70.66;98545.78;6159628;23;20157;-91
2023/04/19 08:39:17;;;;;;;3.73;1.90;;;;;;;16.56;70.89;98549.59;6159631;23;20577;-92
2023/04/19 08:41:45;;;;;;;6.97;1.80;;;;;;;16.58;71.51;98547.69;6185238;23;20150;-91
2023/04/19 08:44:13;;;;;;;2.93;1.47;;;;;;;16.66;70.61;98557.59;6159829;23;20154;-91
2023/04/19 08:46:40;;;;;;;3.13;1.60;;;;;;;16.75;70.73;98558.59;6159919;23;20566;-90
2023/04/19 08:49:07;;;;;;;4.00;1.50;;;;;;;16.79;70.29;98558.22;6185325;23;20154;-91
2023/04/19 08:51:33;;;;;;;3.20;1.77;;;;;;;16.83;70.82;98559.59;6185764;23;20191;-91
2023/04/19 08:54:03;;;;;;;4.67;2.10;;;;;;;16.89;70.79;98559.09;6185764;23;20194;-90
2023/04/19 08:56:29;;;;;;;4.67;1.80;;;;;;;16.98;70.44;98552.16;6185689;23;20178;-90
2023/04/19 08:58:57;;;;;;;3.80;1.37;;;;;;;17.01;70.46;98554.50;6159679;23;20194;-91
2023/04/19 09:01:22;;;;;;;4.00;2.07;;;;;;;17.03;70.40;98556.03;6159320;23;20157;-90
2023/04/19 09:03:49;;;;;;;5.03;2.07;;;;;;;17.00;69.98;98558.16;6186029;23;20154;-91
2023/04/19 09:06:21;;;;;;;2.83;1.70;;;;;;;16.95;69.77;98549.78;6185362;23;20161;-91
2023/04/19 09:08:57;;;;;;;3.57;1.70;;;;;;;16.98;70.54;98550.31;6186066;23;20146;-91
2023/04/19 09:11:37;;;;;;;3.57;1.90;;;;;;;17.09;70.39;98559.97;6159214;23;20181;-90
2023/04/19 09:14:13;;;;;;;3.83;1.70;;;;;;;17.05;71.80;98561.22;6159464;23;20153;-91
2023/04/19 09:16:38;;;;;;;5.47;1.97;;;;;;;17.17;71.85;98560.13;6185774;23;20160;-91
2023/04/19 09:19:08;;;;;;;3.80;1.83;;;;;;;17.34;71.45;98563.94;6159277;23;20575;-91
2023/04/19 09:21:37;;;;;;;4.87;2.10;;;;;;;17.42;70.32;98559.66;6186184;23;20208;-91
2023/04/19 09:24:02;;;;;;;4.47;1.93;;;;;;;17.37;71.39;98561.03;6185664;23;20294;-92
2023/04/19 09:26:31;;;;;;;4.47;2.50;;;;;;;17.45;70.40;98556.69;6160082;23;20223;-91
2023/04/19 09:29:06;;;;;;;3.73;1.83;;;;;;;17.52;69.69;98565.78;6185347;23;20146;-91
2023/04/19 09:31:40;;;;;;;4.47;2.23;;;;;;;17.52;70.37;98555.19;6185129;23;20707;-91
2023/04/19 09:34:27;;;;;;;6.87;2.20;;;;;;;17.53;69.93;98556.06;6159386;23;20165;-91
2023/04/19 09:36:56;;;;;;;4.27;1.87;;;;;;;17.51;69.79;98558.81;6185474;23;20138;-91
2023/04/19 09:39:35;;;;;;;3.77;1.80;;;;;;;17.55;70.72;98554.94;6159990;23;20165;-91
2023/04/19 09:42:02;;;;;;;3.53;1.67;;;;;;;17.66;69.41;98551.31;6185751;23;20170;-91
2023/04/19 09:44:33;;;;;;;4.03;1.87;;;;;;;17.66;70.40;98554.78;6185587;23;20299;-91
2023/04/19 09:47:31;;;;;;;3.47;1.83;;;;;;;17.65;70.61;98549.63;6188055;23;20138;-92
2023/04/19 09:53:40;;;;;;;2.83;0.90;;;;;;;17.91;68.23;98544.59;6185390;23;20190;-91
2023/04/19 09:56:15;;;;;;;1.27;0.50;;;;;;;17.95;66.43;98546.00;6160123;23;20574;-92
2023/04/19 09:58:50;;;;;;;2.40;0.90;;;;;;;17.98;65.04;98551.00;6161222;23;20174;-91
2023/04/19 10:01:33;;;;;;;;;;;;;;;;;;;;;
2023/04/19 10:04:03;;;;;;;1.53;0.63;;;;;;;18.08;63.52;98539.41;6187503;23;20201;-91
2023/04/19 10:06:31;;;;;;;2.70;1.10;;;;;;;18.14;63.73;98533.56;6161319;23;20225;-92
2023/04/19 10:09:27;;;;;;;2.67;1.60;;;;;;;18.21;63.75;98526.69;6160808;23;20226;-91
2023/04/19 10:11:55;;;;;;;2.30;0.83;;;;;;;18.29;64.74;98528.66;6161881;23;20182;-91
2023/04/19 10:17:23;;;;;;;2.33;0.90;;;;;;;18.47;65.96;98526.94;6187234;23;20139;-91
2023/04/19 10:20:14;;;;;;;2.90;1.13;;;;;;;18.62;64.85;98532.63;6187262;23;20135;-92
2023/04/19 10:22:50;;;;;;;1.60;0.70;;;;;;;18.72;63.51;98522.78;6145070;23;20157;-92
2023/04/19 10:25:58;;;;;;;1.43;0.70;;;;;;;18.85;62.31;98517.97;6160780;23;20152;-92
2023/04/19 10:29:04;;;;;;;1.07;0.67;;;;;;;18.96;63.18;98521.28;6146643;23;20190;-91
2023/04/19 10:31:56;;;;;;;1.17;0.63;;;;;;;19.26;61.66;98524.59;6160973;23;20217;-92
2023/04/19 10:35:00;;;;;;;;;;;;;;;;;;;;;
2023/04/19 10:37:28;;;;;;;1.07;0.60;;;;;;;19.28;58.16;98514.66;6186645;23;20221;-92
2023/04/19 10:43:31;;;;;;;;;;;;;;;;;;;;;
2023/04/19 11:17:59;;;;;;;1.07;0.40;;;;;;;21.40;49.95;98494.44;5821757;24;20226;-94
2023/04/19 11:20:30;;;;;;;1.73;0.60;;;;;;;21.46;46.81;98490.28;5818300;24;20159;-93
2023/04/19 11:23:49;;;;;;;0.77;0.43;;;;;;;21.32;48.54;98483.75;5896793;24;20160;-93
2023/04/19 11:36:46;;;;;;;1.27;0.67;;;;;;;21.14;47.23;98479.53;6038459;23;20149;-93
2023/04/19 11:39:15;;;;;;;0.60;0.30;;;;;;;21.04;47.72;98486.81;6038502;23;20165;-92
2023/04/19 11:46:12;;;;;;;1.53;0.53;;;;;;;21.12;49.72;98484.22;6005704;23;20315;-93
2023/04/19 12:40:49;;;;;;;;;;;;;;;;;;;;;
2023/04/19 12:46:47;;;;;;;5.00;0.90;;;;;;;21.03;48.75;98454.00;5871603;24;20571;-91
2023/04/19 12:55:57;;;;;;;1.23;0.70;;;;;;;21.39;46.05;98434.09;5926414;23;20187;-92
2023/04/19 13:03:12;;;;;;;3.83;1.30;;;;;;;21.17;46.33;98448.06;5866578;24;20184;-93
2023/04/19 13:10:20;;;;;;;2.20;1.10;;;;;;;21.29;44.92;98443.25;5843622;24;20209;-93
2023/04/19 13:13:43;;;;;;;5.50;1.30;;;;;;;21.33;45.70;98442.75;5855451;24;20227;-93
2023/04/19 13:15:56;;;;;;;4.13;1.20;;;;;;;21.49;44.49;98441.13;5952578;24;20167;-90
2023/04/19 13:19:16;;;;;;;2.10;1.00;;;;;;;21.54;44.25;98436.94;5953939;24;20599;-94
2023/04/19 13:22:23;;;;;;;2.47;1.07;;;;;;;21.56;43.55;98436.78;5928720;24;20300;-94
2023/04/19 13:36:00;;;;;;;2.00;0.63;;;;;;;21.14;46.38;98445.75;5903591;24;20155;-92
2023/04/19 13:56:52;;;;;;;0.40;0.20;;;;;;;20.89;46.23;98430.63;5956487;24;20227;-95
2023/04/19 20:02:34;;;;;;;7.73;2.57;;;;;;;16.66;67.40;98641.44;6159847;23;20222;-95
2023/04/19 20:05:00;;;;;;;8.93;3.87;;;;;;;16.66;67.23;98639.63;6138210;23;20164;-96
2023/04/19 20:07:25;;;;;;;8.57;3.23;;;;;;;16.69;67.29;98634.09;6137495;23;20155;-96
2023/04/19 20:09:51;;;;;;;9.17;3.37;;;;;;;16.71;67.11;98637.44;6138848;23;20189;-95
2023/04/19 20:12:16;;;;;;;8.20;3.37;;;;;;;16.76;66.92;98637.03;6139433;23;20218;-96
2023/04/19 20:14:42;;;;;;;4.67;2.50;;;;;;;16.77;67.09;98638.72;6139037;23;20159;-95
2023/04/19 20:17:07;;;;;;;6.50;2.50;;;;;;;16.75;67.41;98638.00;6138565;23;20548;-95
